Time;durP1;ratioP1;P1;durP2;ratioP2;P2;SDS_P1;SDS_P2;PMS_P1;PMS_P2;Temp;Humidity;BMP_temperature;BMP_pressure;BME280_temperature;BME280_humidity;BME280_pressure;Samples;Min_cycle;Max_cycle;Signal;HPM_P1;HPM_P2
2024/03/16 00:00:53;;;;;;;6.10;0.90;;;9.80;99.90;;;;;;5052357;28;20497;-70
2024/03/16 00:03:21;;;;;;;7.23;1.30;;;9.80;99.90;;;;;;5050797;28;20450;-70
2024/03/16 00:05:49;;;;;;;7.00;1.10;;;9.90;99.90;;;;;;5049368;28;20454;-70
2024/03/16 00:08:17;;;;;;;8.10;1.00;;;9.80;99.90;;;;;;5052287;28;20906;-69
2024/03/16 00:10:45;;;;;;;6.50;0.80;;;9.80;99.90;;;;;;5052456;28;20474;-70
2024/03/16 00:13:13;;;;;;;6.70;0.90;;;9.90;99.90;;;;;;5051179;28;21037;-69
2024/03/16 00:15:42;;;;;;;6.67;1.00;;;9.90;99.90;;;;;;5055789;28;20858;-70
2024/03/16 00:18:10;;;;;;;6.77;1.07;;;10.00;99.90;;;;;;5050052;28;20489;-69
2024/03/16 00:20:40;;;;;;;6.53;0.93;;;10.00;99.90;;;;;;5052726;28;20462;-70
2024/03/16 00:23:08;;;;;;;6.10;0.80;;;10.00;99.90;;;;;;5052139;28;20479;-70
2024/03/16 00:25:36;;;;;;;7.93;1.00;;;10.00;99.90;;;;;;5050619;28;20454;-70
2024/03/16 00:28:04;;;;;;;7.53;0.83;;;10.00;99.90;;;;;;5053857;28;20854;-70
2024/03/16 00:30:33;;;;;;;8.07;0.77;;;10.00;99.90;;;;;;5054383;28;20504;-68
2024/03/16 00:33:01;;;;;;;6.07;0.80;;;10.00;99.90;;;;;;5052192;28;20524;-70
2024/03/16 00:35:29;;;;;;;5.60;0.50;;;9.90;99.90;;;;;;5045995;28;20465;-70
2024/03/16 00:37:58;;;;;;;6.33;0.70;;;10.00;99.90;;;;;;5045497;28;20510;-70
2024/03/16 00:40:26;;;;;;;8.07;2.60;;;10.00;99.90;;;;;;5045105;28;20623;-70
2024/03/16 00:42:54;;;;;;;7.10;0.60;;;10.00;99.90;;;;;;5044525;28;20465;-70
2024/03/16 00:45:22;;;;;;;6.57;0.50;;;9.90;99.90;;;;;;5045291;28;20613;-70
2024/03/16 00:47:51;;;;;;;6.37;0.50;;;9.90;99.90;;;;;;5059605;28;20476;-71
2024/03/16 00:50:19;;;;;;;5.63;0.50;;;9.80;99.90;;;;;;5059749;28;20567;-70
2024/03/16 00:52:47;;;;;;;6.00;0.50;;;9.60;99.90;;;;;;5045689;28;20893;-70
2024/03/16 00:55:15;;;;;;;5.90;0.67;;;9.50;99.90;;;;;;5043120;28;20998;-70
2024/03/16 00:57:44;;;;;;;5.83;0.63;;;9.50;99.90;;;;;;5044783;28;20481;-70
2024/03/16 01:00:14;;;;;;;5.90;0.50;;;9.50;99.90;;;;;;5044068;28;20449;-70
2024/03/16 01:02:42;;;;;;;6.37;0.60;;;9.50;99.90;;;;;;5043467;28;20456;-71
2024/03/16 01:05:11;;;;;;;5.70;0.50;;;9.50;99.90;;;;;;5045128;28;20534;-70
2024/03/16 01:07:39;;;;;;;5.90;0.50;;;9.50;99.90;;;;;;5044408;28;20515;-70
2024/03/16 01:10:11;;;;;;;5.80;0.50;;;9.40;99.90;;;;;;5042439;28;20527;-70
2024/03/16 01:12:39;;;;;;;5.90;0.60;;;9.30;99.90;;;;;;5043070;28;20552;-70
2024/03/16 01:15:09;;;;;;;6.20;0.50;;;9.30;99.90;;;;;;5060330;28;20533;-70
2024/03/16 01:17:37;;;;;;;5.90;0.50;;;9.40;99.90;;;;;;5043868;28;20508;-71
2024/03/16 01:20:07;;;;;;;5.70;0.50;;;9.40;99.90;;;;;;5058120;28;20454;-69
2024/03/16 01:22:35;;;;;;;6.50;0.60;;;9.50;99.90;;;;;;5042757;28;20445;-71
2024/03/16 01:25:03;;;;;;;6.73;0.50;;;9.50;99.90;;;;;;5043874;28;20440;-71
2024/03/16 01:27:33;;;;;;;6.47;0.70;;;9.50;99.90;;;;;;5040912;28;20450;-70
2024/03/16 01:30:02;;;;;;;7.00;0.80;;;9.50;99.90;;;;;;5044225;28;20457;-69
2024/03/16 01:32:30;;;;;;;5.60;0.40;;;9.50;99.90;;;;;;5040558;28;20509;-70
2024/03/16 01:34:58;;;;;;;5.70;0.50;;;9.40;99.90;;;;;;5057536;28;20558;-71
2024/03/16 01:37:26;;;;;;;5.70;0.53;;;9.40;99.90;;;;;;5059792;28;20585;-71
2024/03/16 01:39:55;;;;;;;6.70;0.60;;;9.40;99.90;;;;;;5051734;28;20554;-69
2024/03/16 01:42:23;;;;;;;6.20;0.57;;;9.40;99.90;;;;;;5062754;28;20497;-69
2024/03/16 01:45:02;;;;;;;6.00;0.60;;;9.40;99.90;;;;;;5047714;28;20537;-68
2024/03/16 01:47:31;;;;;;;6.20;0.60;;;9.30;99.90;;;;;;5047349;28;20998;-69
2024/03/16 01:49:59;;;;;;;5.80;0.60;;;9.30;99.90;;;;;;5047622;28;20865;-69
2024/03/16 01:52:27;;;;;;;5.70;0.60;;;9.40;99.90;;;;;;5046702;28;21017;-69
2024/03/16 01:54:56;;;;;;;6.57;0.60;;;9.50;99.90;;;;;;5048784;28;20887;-69
2024/03/16 01:57:24;;;;;;;6.33;0.60;;;9.40;99.90;;;;;;5047225;28;21197;-69
2024/03/16 01:59:52;;;;;;;5.77;0.50;;;9.40;99.90;;;;;;5041111;28;20468;-68
2024/03/16 02:02:36;;;;;;;5.90;0.60;;;9.40;99.90;;;;;;5046440;28;20484;-69
2024/03/16 02:05:04;;;;;;;5.90;0.70;;;9.30;99.90;;;;;;5063465;28;20459;-69
2024/03/16 02:07:32;;;;;;;5.80;0.50;;;9.30;99.90;;;;;;5040071;28;20437;-68
2024/03/16 02:10:00;;;;;;;5.60;0.43;;;9.40;99.90;;;;;;5046295;28;20512;-69
2024/03/16 02:12:29;;;;;;;5.90;0.60;;;9.40;99.90;;;;;;5046266;28;20533;-69
2024/03/16 02:14:57;;;;;;;6.27;0.73;;;9.30;99.90;;;;;;5048204;28;20486;-69
2024/03/16 02:17:25;;;;;;;6.73;0.67;;;9.40;99.90;;;;;;5046842;28;20457;-68
2024/03/16 02:19:53;;;;;;;5.93;0.50;;;9.40;99.90;;;;;;5044143;28;20449;-68
2024/03/16 02:22:23;;;;;;;6.23;0.80;;;9.40;99.90;;;;;;5047013;28;20567;-70
2024/03/16 02:24:51;;;;;;;6.53;0.80;;;9.50;99.90;;;;;;5047553;28;20456;-70
2024/03/16 02:27:20;;;;;;;5.63;0.50;;;9.40;99.90;;;;;;5047678;28;20462;-70
2024/03/16 02:29:48;;;;;;;6.27;0.67;;;9.40;99.90;;;;;;5058254;28;20473;-69
2024/03/16 02:32:16;;;;;;;5.90;0.60;;;9.40;99.90;;;;;;5044305;28;20505;-69
2024/03/16 02:34:44;;;;;;;6.10;0.60;;;9.40;99.90;;;;;;5047745;28;20847;-69
2024/03/16 02:37:12;;;;;;;7.40;0.50;;;9.30;99.90;;;;;;5044102;28;20534;-68
2024/03/16 02:39:41;;;;;;;5.60;0.63;;;9.30;99.90;;;;;;5047016;28;20474;-69
2024/03/16 02:42:09;;;;;;;6.70;0.63;;;9.30;99.90;;;;;;5042642;28;20463;-70
2024/03/16 02:44:37;;;;;;;5.90;0.60;;;9.20;99.90;;;;;;5045996;28;20537;-68
2024/03/16 02:47:05;;;;;;;5.70;0.50;;;9.30;99.90;;;;;;5063088;28;20448;-68
2024/03/16 02:49:33;;;;;;;7.50;0.70;;;9.30;99.90;;;;;;5061915;28;20989;-69
2024/03/16 02:52:03;;;;;;;6.60;0.60;;;9.30;99.90;;;;;;5045850;28;20469;-69
2024/03/16 02:54:31;;;;;;;5.97;0.47;;;9.20;99.90;;;;;;5048307;28;20447;-68
2024/03/16 02:56:59;;;;;;;6.80;0.60;;;9.30;99.90;;;;;;5048318;28;20463;-69
2024/03/16 02:59:29;;;;;;;6.87;1.07;;;9.30;99.90;;;;;;5047893;28;20883;-69
2024/03/16 03:01:57;;;;;;;6.70;1.10;;;9.30;99.90;;;;;;5043888;28;20539;-69
2024/03/16 03:04:25;;;;;;;5.90;0.90;;;9.40;99.90;;;;;;5047196;28;20455;-69
2024/03/16 03:06:54;;;;;;;5.57;0.60;;;9.40;99.90;;;;;;5044012;28;20544;-69
2024/03/16 03:09:22;;;;;;;6.13;0.60;;;9.40;99.90;;;;;;5047318;28;21236;-69
2024/03/16 03:11:50;;;;;;;6.07;0.60;;;9.40;99.90;;;;;;5045964;28;20491;-69
2024/03/16 03:14:18;;;;;;;6.17;0.60;;;9.40;99.90;;;;;;5048170;28;20446;-69
2024/03/16 03:16:46;;;;;;;5.80;0.63;;;9.40;99.90;;;;;;5045484;28;20449;-69
2024/03/16 03:19:14;;;;;;;6.53;0.80;;;9.50;99.90;;;;;;5051197;28;20584;-68
2024/03/16 03:21:42;;;;;;;6.83;0.60;;;9.50;99.90;;;;;;5046104;28;20568;-69
2024/03/16 03:24:09;;;;;;;5.80;0.50;;;9.60;99.90;;;;;;5050623;28;20463;-69
2024/03/16 03:26:38;;;;;;;6.03;0.80;;;9.60;99.90;;;;;;5048552;28;20476;-69
2024/03/16 03:29:06;;;;;;;6.50;0.50;;;9.70;99.90;;;;;;5081152;28;20796;-69
2024/03/16 03:31:34;;;;;;;7.30;0.80;;;9.70;99.90;;;;;;5061031;28;21153;-69
2024/03/16 03:34:02;;;;;;;6.63;0.70;;;9.70;99.90;;;;;;5050352;28;20465;-69
2024/03/16 03:36:30;;;;;;;6.23;0.70;;;9.60;99.90;;;;;;5050286;28;20473;-69
2024/03/16 03:38:58;;;;;;;7.40;1.17;;;9.60;99.90;;;;;;5050846;28;20569;-69
2024/03/16 03:41:27;;;;;;;7.30;0.90;;;9.60;99.90;;;;;;5047679;28;20547;-69
2024/03/16 03:43:59;;;;;;;7.47;0.90;;;9.50;99.90;;;;;;5047193;28;20973;-70
2024/03/16 03:46:49;;;;;;;6.30;0.63;;;9.50;99.90;;;;;;5051308;28;20481;-70
2024/03/16 03:49:28;;;;;;;7.50;0.60;;;9.50;99.90;;;;;;5053051;28;20566;-69
2024/03/16 03:51:58;;;;;;;6.13;0.50;;;9.50;99.90;;;;;;5049770;28;20457;-69
2024/03/16 03:54:26;;;;;;;5.80;0.47;;;9.50;99.90;;;;;;5048885;28;20468;-69
2024/03/16 03:56:54;;;;;;;6.17;0.80;;;9.50;99.90;;;;;;5049874;28;20979;-69
2024/03/16 03:59:23;;;;;;;6.20;0.80;;;9.50;99.90;;;;;;5049701;28;20484;-68
2024/03/16 04:01:51;;;;;;;7.67;0.90;;;9.50;99.90;;;;;;5047480;28;20462;-68
2024/03/16 04:04:19;;;;;;;6.70;0.80;;;9.50;99.90;;;;;;5048681;28;20480;-69
2024/03/16 04:06:47;;;;;;;9.40;0.80;;;9.50;99.90;;;;;;5050937;28;20529;-69
2024/03/16 04:09:15;;;;;;;6.57;1.00;;;9.40;99.90;;;;;;5048188;28;20749;-69
2024/03/16 04:11:43;;;;;;;9.60;1.20;;;9.40;99.90;;;;;;5048602;28;20461;-70
2024/03/16 04:14:11;;;;;;;7.43;0.80;;;9.40;99.90;;;;;;5049188;28;20470;-69
2024/03/16 04:16:39;;;;;;;7.37;0.87;;;9.40;99.90;;;;;;5050451;28;20463;-70
2024/03/16 04:19:07;;;;;;;6.60;0.83;;;9.50;99.90;;;;;;5050351;28;20469;-69
2024/03/16 04:21:36;;;;;;;7.20;1.10;;;9.50;99.90;;;;;;5065343;28;20498;-69
2024/03/16 04:24:04;;;;;;;6.00;0.87;;;9.50;99.90;;;;;;5047129;28;21144;-69
2024/03/16 04:26:32;;;;;;;6.40;0.80;;;9.50;99.90;;;;;;5050314;28;20888;-69
2024/03/16 04:29:00;;;;;;;6.10;0.73;;;9.60;99.90;;;;;;5046943;28;20482;-70
2024/03/16 04:31:28;;;;;;;6.90;0.90;;;9.60;99.90;;;;;;5048878;28;20473;-70
2024/03/16 04:33:56;;;;;;;6.87;1.10;;;9.60;99.90;;;;;;5047074;28;20574;-69
2024/03/16 04:36:24;;;;;;;6.50;0.97;;;9.60;99.90;;;;;;5049332;28;20454;-70
2024/03/16 04:38:52;;;;;;;9.63;1.20;;;9.60;99.90;;;;;;5047347;28;20482;-69
2024/03/16 04:41:20;;;;;;;6.47;0.87;;;9.50;99.90;;;;;;5068727;28;20994;-70
2024/03/16 04:43:48;;;;;;;8.10;0.90;;;9.50;99.90;;;;;;5067145;28;21055;-70
2024/03/16 04:46:16;;;;;;;8.50;1.10;;;9.50;99.90;;;;;;5075648;28;20477;-69
2024/03/16 04:48:44;;;;;;;6.63;0.70;;;9.50;99.90;;;;;;5048395;28;20504;-70
2024/03/16 04:51:14;;;;;;;7.87;0.83;;;9.50;99.90;;;;;;5046283;28;21376;-69
2024/03/16 04:53:42;;;;;;;7.00;0.80;;;9.50;99.90;;;;;;5045367;28;20463;-70
2024/03/16 04:56:10;;;;;;;8.13;0.70;;;9.50;99.90;;;;;;5078840;28;20527;-70
2024/03/16 04:58:38;;;;;;;6.73;0.80;;;9.60;99.90;;;;;;5060346;28;20877;-70
2024/03/16 05:01:09;;;;;;;6.87;0.90;;;9.70;99.90;;;;;;5048429;28;20550;-69
2024/03/16 05:03:37;;;;;;;10.10;2.57;;;9.60;99.90;;;;;;5048075;28;21069;-69
2024/03/16 05:06:05;;;;;;;7.37;1.03;;;9.50;99.90;;;;;;5044714;28;20485;-69
2024/03/16 05:08:33;;;;;;;7.10;0.90;;;9.50;99.90;;;;;;5049418;28;20472;-69
2024/03/16 05:11:02;;;;;;;7.90;1.10;;;9.40;99.90;;;;;;5049043;28;20862;-70
2024/03/16 05:13:30;;;;;;;6.50;1.00;;;9.50;99.90;;;;;;5067490;28;21066;-70
2024/03/16 05:16:06;;;;;;;6.57;0.97;;;9.40;99.90;;;;;;5048237;28;20491;-70
2024/03/16 05:18:34;;;;;;;12.07;0.90;;;9.30;99.90;;;;;;5047994;28;20978;-70
2024/03/16 05:21:03;;;;;;;7.17;1.30;;;9.30;99.90;;;;;;5043826;28;20501;-69
2024/03/16 05:23:31;;;;;;;7.80;1.10;;;9.20;99.90;;;;;;5046898;28;20560;-70
2024/03/16 05:26:00;;;;;;;6.93;0.70;;;9.20;99.90;;;;;;5045358;28;20443;-69
2024/03/16 05:28:28;;;;;;;6.53;0.73;;;9.10;99.90;;;;;;5046536;28;20477;-68
2024/03/16 05:30:56;;;;;;;5.97;0.70;;;9.10;99.90;;;;;;5047424;28;20544;-70
2024/03/16 05:33:24;;;;;;;6.33;0.80;;;9.10;99.90;;;;;;5044685;28;20636;-69
2024/03/16 05:35:52;;;;;;;7.23;1.10;;;9.10;99.90;;;;;;5046094;28;20488;-69
2024/03/16 05:38:20;;;;;;;8.67;0.90;;;9.00;99.90;;;;;;5046706;28;21209;-69
2024/03/16 05:40:48;;;;;;;6.77;1.00;;;9.10;99.90;;;;;;5047071;28;20562;-69
2024/03/16 05:43:16;;;;;;;7.20;0.90;;;9.10;99.90;;;;;;5040590;28;20486;-69
2024/03/16 05:45:44;;;;;;;7.57;1.00;;;9.10;99.90;;;;;;5048441;28;21037;-69
2024/03/16 05:48:13;;;;;;;6.30;0.90;;;9.10;99.90;;;;;;5048882;28;20477;-69
2024/03/16 05:50:41;;;;;;;6.70;0.80;;;9.10;99.90;;;;;;5063399;28;21025;-69
2024/03/16 05:53:09;;;;;;;6.90;0.87;;;9.10;99.90;;;;;;5071347;28;20560;-69
2024/03/16 05:55:37;;;;;;;6.50;0.80;;;9.10;99.90;;;;;;5065301;28;20476;-70
2024/03/16 05:58:05;;;;;;;5.90;0.60;;;9.30;99.90;;;;;;5039730;28;20472;-70
2024/03/16 06:00:37;;;;;;;6.30;0.80;;;9.30;99.90;;;;;;5047742;28;20510;-70
2024/03/16 06:03:05;;;;;;;6.10;0.70;;;9.40;99.90;;;;;;5044872;28;20467;-70
2024/03/16 06:05:35;;;;;;;6.40;0.73;;;9.40;99.90;;;;;;5075510;28;22146;-69
2024/03/16 06:08:04;;;;;;;6.60;0.70;;;9.40;99.90;;;;;;5045413;28;20570;-69
2024/03/16 06:10:32;;;;;;;7.67;0.77;;;9.60;99.90;;;;;;5047543;28;20475;-69
2024/03/16 06:13:02;;;;;;;6.67;0.90;;;9.60;99.90;;;;;;5044231;28;20450;-69
2024/03/16 06:15:30;;;;;;;6.90;0.80;;;9.70;99.90;;;;;;5071521;28;20462;-70
2024/03/16 06:17:58;;;;;;;6.70;1.00;;;9.70;99.90;;;;;;5051378;28;21052;-70
2024/03/16 06:20:27;;;;;;;6.90;1.00;;;9.80;99.90;;;;;;5043233;28;21203;-70
2024/03/16 06:22:55;;;;;;;6.00;0.77;;;9.70;99.90;;;;;;5037207;28;20821;-69
2024/03/16 06:25:24;;;;;;;7.50;1.00;;;9.70;99.90;;;;;;5047619;28;20485;-69
2024/03/16 06:27:54;;;;;;;6.57;1.17;;;9.70;99.90;;;;;;5046889;28;20568;-70
2024/03/16 06:30:27;;;;;;;8.20;1.27;;;9.80;99.90;;;;;;5045725;28;20984;-69
2024/03/16 06:33:08;;;;;;;7.03;0.70;;;9.80;99.90;;;;;;5043679;28;20467;-69
2024/03/16 06:35:37;;;;;;;7.30;0.77;;;9.90;99.90;;;;;;5050648;28;20466;-69
2024/03/16 06:38:05;;;;;;;5.90;0.80;;;9.90;99.90;;;;;;5048241;28;20463;-69
2024/03/16 06:40:34;;;;;;;6.80;0.73;;;10.00;99.90;;;;;;5045317;28;20926;-70
2024/03/16 06:43:02;;;;;;;7.00;1.10;;;10.10;99.90;;;;;;5045947;28;20449;-70
2024/03/16 06:45:31;;;;;;;6.33;1.10;;;10.10;99.90;;;;;;5045688;28;20462;-70
2024/03/16 06:47:59;;;;;;;6.93;0.90;;;10.20;99.90;;;;;;5047272;28;20447;-69
2024/03/16 06:50:27;;;;;;;6.67;1.13;;;10.10;99.90;;;;;;5047064;28;20482;-70
2024/03/16 06:52:55;;;;;;;6.97;0.80;;;10.20;99.90;;;;;;5049753;28;20443;-68
2024/03/16 06:55:24;;;;;;;5.70;0.60;;;10.40;99.90;;;;;;5048610;28;20493;-70
2024/03/16 06:57:52;;;;;;;6.50;0.70;;;10.60;99.90;;;;;;5051660;28;20443;-70
2024/03/16 07:00:21;;;;;;;5.83;0.90;;;10.70;99.90;;;;;;5050190;28;21062;-68
2024/03/16 07:02:49;;;;;;;7.07;0.70;;;10.70;99.90;;;;;;5050082;28;20798;-68
2024/03/16 07:05:17;;;;;;;6.57;1.00;;;10.60;99.90;;;;;;5047129;28;20462;-66
2024/03/16 07:07:46;;;;;;;6.30;0.80;;;10.50;99.90;;;;;;5050695;28;20438;-68
2024/03/16 07:10:15;;;;;;;6.07;0.80;;;10.50;99.90;;;;;;5046537;28;20478;-68
2024/03/16 07:12:43;;;;;;;7.20;0.90;;;10.40;99.90;;;;;;5049534;28;20450;-68
2024/03/16 07:15:15;;;;;;;7.00;0.90;;;10.40;99.90;;;;;;5051600;28;20913;-70
2024/03/16 07:17:43;;;;;;;6.00;0.63;;;10.40;99.90;;;;;;5052503;28;20443;-69
2024/03/16 07:20:12;;;;;;;5.90;0.60;;;10.40;99.90;;;;;;5048561;28;20443;-69
2024/03/16 07:22:41;;;;;;;6.60;0.73;;;10.50;99.90;;;;;;5050694;28;20475;-69
2024/03/16 07:25:09;;;;;;;6.33;0.80;;;10.50;99.90;;;;;;5044302;28;20479;-70
2024/03/16 07:27:37;;;;;;;6.47;0.70;;;10.60;99.90;;;;;;5050301;28;21124;-69
2024/03/16 07:30:06;;;;;;;7.90;0.90;;;10.60;99.90;;;;;;5050120;28;20474;-71
2024/03/16 07:32:34;;;;;;;8.00;0.70;;;10.60;99.90;;;;;;5049265;28;20444;-69
2024/03/16 07:35:06;;;;;;;6.00;0.63;;;10.60;99.90;;;;;;5047152;28;20480;-68
2024/03/16 07:37:34;;;;;;;6.60;0.90;;;10.70;99.90;;;;;;5050518;28;20470;-69
2024/03/16 07:40:04;;;;;;;6.27;1.20;;;10.60;99.90;;;;;;5066357;28;20460;-70
2024/03/16 07:42:32;;;;;;;6.67;0.90;;;10.70;99.90;;;;;;5047089;28;20485;-70
2024/03/16 07:45:01;;;;;;;6.60;0.90;;;10.70;99.90;;;;;;5050580;28;20481;-69
2024/03/16 07:47:29;;;;;;;7.07;0.90;;;10.80;99.90;;;;;;5047539;28;20476;-69
2024/03/16 07:49:57;;;;;;;7.20;0.70;;;10.70;99.90;;;;;;5045795;28;20479;-70
2024/03/16 07:52:26;;;;;;;8.03;1.27;;;10.60;99.90;;;;;;5046998;28;20510;-69
2024/03/16 07:54:55;;;;;;;7.13;1.10;;;10.60;99.90;;;;;;5046748;28;20479;-69
2024/03/16 07:57:24;;;;;;;7.83;1.00;;;10.70;99.90;;;;;;5049780;28;20471;-69
2024/03/16 07:59:52;;;;;;;7.53;1.03;;;10.70;99.90;;;;;;5045665;28;20483;-69
2024/03/16 08:02:20;;;;;;;6.70;1.00;;;10.70;99.90;;;;;;5047846;28;20548;-70
2024/03/16 08:04:48;;;;;;;7.17;1.23;;;10.90;99.90;;;;;;5049653;28;20468;-69
2024/03/16 08:07:16;;;;;;;7.07;1.03;;;10.90;99.90;;;;;;5049159;28;20479;-71
2024/03/16 08:09:45;;;;;;;7.07;1.10;;;11.00;99.90;;;;;;5066709;28;20450;-70
2024/03/16 08:12:13;;;;;;;8.33;0.90;;;11.20;99.90;;;;;;5064386;28;20545;-70
2024/03/16 08:14:41;;;;;;;7.83;1.13;;;11.30;99.90;;;;;;5069729;28;20484;-70
2024/03/16 08:17:09;;;;;;;8.73;1.23;;;11.40;99.90;;;;;;5048942;28;20464;-70
2024/03/16 08:19:38;;;;;;;7.00;0.87;;;11.50;99.90;;;;;;5071526;28;20571;-69
2024/03/16 08:22:06;;;;;;;6.70;1.03;;;11.60;99.90;;;;;;5048300;28;20506;-70
2024/03/16 08:24:35;;;;;;;7.73;1.10;;;11.70;99.90;;;;;;5078676;28;20951;-70
2024/03/16 08:27:03;;;;;;;7.00;1.00;;;11.70;99.90;;;;;;5050747;28;20473;-70
2024/03/16 08:29:32;;;;;;;6.53;0.80;;;11.80;99.90;;;;;;5049860;28;20543;-69
2024/03/16 08:32:01;;;;;;;7.33;1.07;;;11.90;99.90;;;;;;5045377;28;21296;-70
2024/03/16 08:34:29;;;;;;;5.90;0.87;;;12.00;99.90;;;;;;5067044;28;21057;-69
2024/03/16 08:36:57;;;;;;;7.33;1.03;;;12.30;99.90;;;;;;5045983;28;20481;-69
2024/03/16 08:39:25;;;;;;;7.67;1.00;;;12.50;99.90;;;;;;5049928;28;20560;-70
2024/03/16 08:41:54;;;;;;;6.50;0.80;;;12.60;99.90;;;;;;5044849;28;20566;-70
2024/03/16 08:44:23;;;;;;;9.30;1.33;;;12.80;99.90;;;;;;5049569;28;20473;-69
2024/03/16 08:46:51;;;;;;;5.73;0.80;;;12.90;99.90;;;;;;5049321;28;20559;-69
2024/03/16 08:49:19;;;;;;;7.70;1.00;;;12.90;99.90;;;;;;5069261;28;20482;-69
2024/03/16 08:51:47;;;;;;;7.10;1.23;;;13.00;99.90;;;;;;5064180;28;20462;-69
2024/03/16 08:54:15;;;;;;;8.83;0.90;;;12.90;99.90;;;;;;5048756;28;20474;-69
2024/03/16 08:56:43;;;;;;;5.97;0.80;;;12.90;99.90;;;;;;5076726;28;20468;-69
2024/03/16 08:59:12;;;;;;;5.90;0.70;;;12.90;99.90;;;;;;5050290;28;20469;-69
2024/03/16 09:01:40;;;;;;;8.93;0.87;;;12.70;99.90;;;;;;5073551;28;20922;-69
2024/03/16 09:04:08;;;;;;;6.73;0.80;;;12.50;99.90;;;;;;5046614;28;20556;-68
2024/03/16 09:06:38;;;;;;;7.87;1.00;;;12.30;99.90;;;;;;5049173;28;20515;-70
2024/03/16 09:09:10;;;;;;;6.33;1.20;;;12.30;99.90;;;;;;5064221;28;20472;-69
2024/03/16 09:11:38;;;;;;;7.13;1.30;;;12.40;99.90;;;;;;5044546;28;20529;-69
2024/03/16 09:14:07;;;;;;;7.43;1.00;;;12.50;99.90;;;;;;5040040;28;20446;-69
2024/03/16 09:16:36;;;;;;;6.10;0.77;;;12.80;99.90;;;;;;5048317;28;20482;-68
2024/03/16 09:19:04;;;;;;;7.60;1.40;;;12.90;99.90;;;;;;5047448;28;20570;-70
2024/03/16 09:21:32;;;;;;;6.37;0.70;;;12.80;99.90;;;;;;5070367;28;20500;-69
2024/03/16 09:24:00;;;;;;;6.50;0.60;;;13.00;99.90;;;;;;5049762;28;20441;-68
2024/03/16 09:26:28;;;;;;;5.80;0.67;;;13.10;99.90;;;;;;5048684;28;20561;-69
2024/03/16 09:28:56;;;;;;;6.00;0.67;;;12.90;99.90;;;;;;5073677;28;20470;-69
2024/03/16 09:31:25;;;;;;;6.47;0.63;;;13.00;99.90;;;;;;5060746;28;20485;-70
2024/03/16 09:33:54;;;;;;;7.17;0.60;;;13.10;99.90;;;;;;5049667;28;20479;-69
2024/03/16 09:36:22;;;;;;;5.87;0.60;;;13.20;99.90;;;;;;5043111;28;20482;-69
2024/03/16 09:38:50;;;;;;;6.90;0.83;;;13.20;99.90;;;;;;5049127;28;20532;-69
2024/03/16 09:41:18;;;;;;;6.30;0.80;;;13.10;99.90;;;;;;5046872;28;20518;-69
2024/03/16 09:43:46;;;;;;;6.20;0.70;;;13.10;99.90;;;;;;5040931;28;20481;-69
2024/03/16 09:46:14;;;;;;;5.93;0.73;;;13.10;99.90;;;;;;5049777;28;20480;-68
2024/03/16 09:48:41;;;;;;;5.90;0.97;;;13.30;99.90;;;;;;5064846;28;20853;-70
2024/03/16 09:51:09;;;;;;;6.43;0.87;;;13.50;99.90;;;;;;5032743;28;20473;-69
2024/03/16 09:53:38;;;;;;;7.30;1.00;;;13.80;99.90;;;;;;5049226;28;20466;-70
2024/03/16 09:56:07;;;;;;;6.27;0.70;;;14.00;99.90;;;;;;5049933;28;20461;-70
2024/03/16 09:58:34;;;;;;;6.10;0.63;;;14.00;99.90;;;;;;5062547;28;20967;-69
2024/03/16 10:01:03;;;;;;;6.13;0.90;;;13.50;99.90;;;;;;5047171;28;20499;-69
2024/03/16 10:03:30;;;;;;;5.80;0.50;;;13.20;99.90;;;;;;5047785;28;20542;-69
2024/03/16 10:05:59;;;;;;;5.80;0.60;;;12.80;99.90;;;;;;5033701;28;21003;-71
2024/03/16 10:08:26;;;;;;;6.70;0.53;;;12.80;99.90;;;;;;5066744;28;20461;-69
2024/03/16 10:11:04;;;;;;;5.83;0.70;;;12.80;99.90;;;;;;5029188;28;20530;-69
2024/03/16 10:13:32;;;;;;;6.50;0.70;;;12.70;99.90;;;;;;5032776;28;20489;-69
2024/03/16 10:15:59;;;;;;;6.23;0.60;;;12.70;99.90;;;;;;5033041;28;20518;-68
2024/03/16 10:18:26;;;;;;;5.90;0.70;;;13.00;99.90;;;;;;5049435;28;21016;-69
2024/03/16 10:20:53;;;;;;;6.53;0.73;;;13.40;99.90;;;;;;5046033;28;20486;-69
2024/03/16 10:23:21;;;;;;;6.33;0.60;;;13.80;99.90;;;;;;5037548;28;20854;-70
2024/03/16 10:25:48;;;;;;;5.60;0.50;;;13.90;99.90;;;;;;5053482;28;20454;-70
2024/03/16 10:28:15;;;;;;;5.60;0.50;;;14.30;99.90;;;;;;5033971;28;20463;-69
2024/03/16 10:30:42;;;;;;;6.80;0.70;;;14.00;99.90;;;;;;5053262;28;20842;-69
2024/03/16 10:33:09;;;;;;;6.17;0.60;;;13.90;99.90;;;;;;5051848;28;20493;-69
2024/03/16 10:35:39;;;;;;;7.93;0.80;;;14.00;99.90;;;;;;5050967;28;20456;-68
2024/03/16 10:38:08;;;;;;;6.57;0.63;;;14.40;99.90;;;;;;5052831;28;20459;-69
2024/03/16 10:40:37;;;;;;;5.70;0.50;;;14.20;99.90;;;;;;5036468;28;20491;-69
2024/03/16 10:43:04;;;;;;;5.50;0.40;;;13.90;99.90;;;;;;5051159;28;21203;-69
2024/03/16 10:45:33;;;;;;;6.10;1.00;;;13.80;99.90;;;;;;5052387;28;20918;-69
2024/03/16 10:48:02;;;;;;;5.43;0.40;;;14.00;99.90;;;;;;5033305;28;20937;-68
2024/03/16 10:50:30;;;;;;;6.30;0.60;;;14.60;99.90;;;;;;5034460;28;20479;-68
2024/03/16 10:52:57;;;;;;;7.33;0.57;;;14.60;99.90;;;;;;5050303;28;20486;-69
2024/03/16 10:55:24;;;;;;;5.40;0.50;;;14.60;99.90;;;;;;5051476;28;20465;-69
2024/03/16 10:57:52;;;;;;;6.20;0.40;;;14.60;99.90;;;;;;5032229;28;20954;-69
2024/03/16 11:00:29;;;;;;;5.43;0.40;;;14.30;99.90;;;;;;5035724;28;20508;-69
2024/03/16 11:03:00;;;;;;;6.07;0.63;;;14.30;99.90;;;;;;5029051;28;20805;-69
2024/03/16 11:05:33;;;;;;;5.37;0.60;;;14.30;99.90;;;;;;5052667;28;20458;-69
2024/03/16 11:08:01;;;;;;;5.70;0.60;;;14.40;99.90;;;;;;5035518;28;20481;-69
2024/03/16 11:10:38;;;;;;;5.50;0.40;;;14.20;99.90;;;;;;5051625;28;20843;-69
2024/03/16 11:13:15;;;;;;;6.43;0.70;;;14.30;99.90;;;;;;5034388;28;20491;-70
2024/03/16 11:15:42;;;;;;;5.50;0.40;;;14.40;99.90;;;;;;5035321;28;20460;-72
2024/03/16 11:18:43;;;;;;;6.50;0.63;;;14.70;99.90;;;;;;5051320;28;20824;-70
2024/03/16 11:21:16;;;;;;;5.33;0.40;;;15.10;99.90;;;;;;5051561;28;20470;-71
2024/03/16 11:23:44;;;;;;;6.10;0.40;;;15.30;99.90;;;;;;5034685;28;20451;-71
2024/03/16 11:26:39;;;;;;;6.17;0.40;;;15.10;99.90;;;;;;5035700;28;20456;-70
2024/03/16 11:29:09;;;;;;;5.37;0.43;;;14.60;99.90;;;;;;5068462;28;20453;-71
2024/03/16 11:31:39;;;;;;;5.67;0.50;;;15.10;99.90;;;;;;5035978;28;20481;-70
2024/03/16 11:34:08;;;;;;;5.80;0.63;;;15.40;99.90;;;;;;5058641;28;20483;-70
2024/03/16 11:36:38;;;;;;;5.60;0.67;;;15.90;99.90;;;;;;5049799;28;20449;-69
2024/03/16 11:39:11;;;;;;;6.80;0.50;;;16.50;99.90;;;;;;5050119;28;21100;-76
2024/03/16 11:41:45;;;;;;;5.80;0.50;;;16.80;99.90;;;;;;5034517;28;20479;-69
2024/03/16 11:44:14;;;;;;;5.87;0.40;;;17.00;99.90;;;;;;5051541;28;20513;-71
2024/03/16 11:46:45;;;;;;;5.83;0.60;;;16.80;99.90;;;;;;5062971;28;20451;-71
2024/03/16 11:49:14;;;;;;;5.43;0.60;;;15.90;99.90;;;;;;5051441;28;20455;-71
2024/03/16 11:51:42;;;;;;;6.07;0.90;;;15.00;99.90;;;;;;5059988;28;20979;-70
2024/03/16 11:54:08;;;;;;;5.80;0.70;;;14.70;99.90;;;;;;5047723;28;20487;-69
2024/03/16 11:56:36;;;;;;;7.13;0.83;;;14.60;99.90;;;;;;5034682;28;20451;-70
2024/03/16 11:59:05;;;;;;;6.60;1.27;;;14.30;99.90;;;;;;5048372;28;20459;-70
2024/03/16 12:01:36;;;;;;;5.40;0.40;;;14.70;99.90;;;;;;5036038;28;20476;-70
2024/03/16 12:04:03;;;;;;;8.67;2.30;;;14.90;99.90;;;;;;5040355;28;20448;-69
2024/03/16 12:06:31;;;;;;;5.27;0.33;;;15.10;99.90;;;;;;5046382;28;20458;-70
2024/03/16 12:08:57;;;;;;;5.30;0.40;;;15.40;99.90;;;;;;5057334;28;20449;-70
2024/03/16 12:11:25;;;;;;;6.30;0.77;;;15.20;99.90;;;;;;5055522;28;20482;-71
2024/03/16 12:14:06;;;;;;;5.60;0.67;;;15.10;99.90;;;;;;5046594;28;20489;-71
2024/03/16 12:16:33;;;;;;;8.63;0.70;;;15.30;99.90;;;;;;5053819;28;20458;-72
2024/03/16 12:18:59;;;;;;;5.40;0.47;;;16.20;99.90;;;;;;5054825;28;20482;-75
2024/03/16 12:21:29;;;;;;;5.23;0.30;;;16.10;99.90;;;;;;5036392;28;20489;-70
2024/03/16 12:23:56;;;;;;;5.80;0.40;;;15.60;99.90;;;;;;5050567;28;20460;-71
2024/03/16 12:26:26;;;;;;;5.57;0.60;;;15.70;99.90;;;;;;5049839;28;20470;-71
2024/03/16 12:28:53;;;;;;;5.47;0.60;;;15.70;99.90;;;;;;5060939;28;20461;-71
2024/03/16 12:31:20;;;;;;;5.50;0.50;;;15.60;99.90;;;;;;5048868;28;20463;-71
2024/03/16 12:33:46;;;;;;;5.67;0.60;;;15.50;99.90;;;;;;5061610;28;20490;-71
2024/03/16 12:36:13;;;;;;;5.90;0.70;;;14.90;99.90;;;;;;5049869;28;20511;-69
2024/03/16 12:38:39;;;;;;;5.50;0.50;;;14.50;99.90;;;;;;5061668;28;20457;-69
2024/03/16 12:41:07;;;;;;;6.00;0.60;;;14.40;99.90;;;;;;5056470;28;20482;-69
2024/03/16 12:43:33;;;;;;;6.43;0.87;;;14.00;99.90;;;;;;5048030;28;20517;-71
2024/03/16 12:46:00;;;;;;;5.60;0.70;;;14.10;99.90;;;;;;5048481;28;20941;-70
2024/03/16 12:48:28;;;;;;;5.50;0.60;;;15.20;99.90;;;;;;5049667;28;20455;-72
2024/03/16 12:51:04;;;;;;;5.30;0.50;;;16.10;99.90;;;;;;5049102;28;20479;-72
2024/03/16 12:53:30;;;;;;;5.90;0.70;;;16.00;99.90;;;;;;5031823;28;20531;-66
2024/03/16 12:55:59;;;;;;;6.03;0.50;;;15.80;99.90;;;;;;5047210;28;20455;-62
2024/03/16 12:58:25;;;;;;;5.33;0.40;;;15.70;99.90;;;;;;5046989;28;20493;-62